sensor_id;sensor_type;location;lat;lon;timestamp;P1;durP1;ratioP1;P2;durP2;ratioP2
15183;SDS011;7693;49.266;7.104;2023-06-14T04:52:20;10.10;;;8.32;;
15183;SDS011;7693;49.266;7.104;2023-06-14T04:54:46;8.65;;;7.20;;
15183;SDS011;7693;49.266;7.104;2023-06-14T04:57:12;10.73;;;7.60;;
15183;SDS011;7693;49.266;7.104;2023-06-14T04:59:42;9.02;;;8.13;;
15183;SDS011;7693;49.266;7.104;2023-06-14T05:02:09;7.53;;;6.85;;
15183;SDS011;7693;49.266;7.104;2023-06-14T05:04:36;9.35;;;7.18;;
15183;SDS011;7693;49.266;7.104;2023-06-14T05:07:05;7.40;;;6.70;;
15183;SDS011;7693;49.266;7.104;2023-06-14T05:09:37;7.15;;;6.55;;
15183;SDS011;7693;49.266;7.104;2023-06-14T05:12:03;8.43;;;7.32;;
15183;SDS011;7693;49.266;7.104;2023-06-14T05:14:29;6.68;;;6.07;;
15183;SDS011;7693;49.266;7.104;2023-06-14T05:16:54;7.78;;;6.35;;
15183;SDS011;7693;49.266;7.104;2023-06-14T05:19:20;12.20;;;6.53;;
15183;SDS011;7693;49.266;7.104;2023-06-14T05:21:46;7.15;;;6.32;;
15183;SDS011;7693;49.266;7.104;2023-06-14T05:24:12;6.38;;;5.53;;
15183;SDS011;7693;49.266;7.104;2023-06-14T05:26:38;7.80;;;6.07;;
15183;SDS011;7693;49.266;7.104;2023-06-14T05:29:04;7.00;;;5.82;;
15183;SDS011;7693;49.266;7.104;2023-06-14T05:31:30;7.70;;;5.88;;
15183;SDS011;7693;49.266;7.104;2023-06-14T05:33:56;10.52;;;5.63;;
15183;SDS011;7693;49.266;7.104;2023-06-14T05:36:22;6.32;;;5.70;;
15183;SDS011;7693;49.266;7.104;2023-06-14T05:38:47;10.63;;;5.55;;
15183;SDS011;7693;49.266;7.104;2023-06-14T05:41:13;6.03;;;5.53;;
15183;SDS011;7693;49.266;7.104;2023-06-14T05:43:39;5.60;;;5.10;;
15183;SDS011;7693;49.266;7.104;2023-06-14T05:46:04;7.95;;;5.57;;
15183;SDS011;7693;49.266;7.104;2023-06-14T05:48:30;6.00;;;5.50;;
15183;SDS011;7693;49.266;7.104;2023-06-14T05:50:56;6.13;;;5.70;;
15183;SDS011;7693;49.266;7.104;2023-06-14T05:53:22;7.28;;;5.15;;
15183;SDS011;7693;49.266;7.104;2023-06-14T05:55:47;7.07;;;5.15;;
15183;SDS011;7693;49.266;7.104;2023-06-14T05:58:14;6.15;;;5.50;;
15183;SDS011;7693;49.266;7.104;2023-06-14T06:00:39;5.88;;;5.30;;
15183;SDS011;7693;49.266;7.104;2023-06-14T06:03:05;5.90;;;5.30;;
15183;SDS011;7693;49.266;7.104;2023-06-14T06:05:33;6.20;;;5.60;;
15183;SDS011;7693;49.266;7.104;2023-06-14T06:07:58;6.43;;;5.50;;
15183;SDS011;7693;49.266;7.104;2023-06-14T06:10:25;8.20;;;5.78;;
15183;SDS011;7693;49.266;7.104;2023-06-14T06:12:50;6.20;;;5.70;;
15183;SDS011;7693;49.266;7.104;2023-06-14T06:15:17;5.03;;;4.70;;
15183;SDS011;7693;49.266;7.104;2023-06-14T06:17:43;9.85;;;5.13;;
15183;SDS011;7693;49.266;7.104;2023-06-14T06:20:09;5.70;;;5.20;;
15183;SDS011;7693;49.266;7.104;2023-06-14T06:22:36;5.38;;;4.95;;
15183;SDS011;7693;49.266;7.104;2023-06-14T06:25:02;5.65;;;5.15;;
15183;SDS011;7693;49.266;7.104;2023-06-14T06:27:28;5.78;;;5.30;;
15183;SDS011;7693;49.266;7.104;2023-06-14T06:29:53;4.50;;;4.20;;
15183;SDS011;7693;49.266;7.104;2023-06-14T06:32:19;4.82;;;4.45;;
15183;SDS011;7693;49.266;7.104;2023-06-14T06:34:44;7.15;;;4.78;;
15183;SDS011;7693;49.266;7.104;2023-06-14T06:37:10;5.40;;;4.90;;
15183;SDS011;7693;49.266;7.104;2023-06-14T06:39:36;9.05;;;4.90;;
15183;SDS011;7693;49.266;7.104;2023-06-14T06:42:01;5.90;;;5.30;;
15183;SDS011;7693;49.266;7.104;2023-06-14T06:44:27;4.93;;;4.60;;
15183;SDS011;7693;49.266;7.104;2023-06-14T06:46:53;4.72;;;4.43;;
15183;SDS011;7693;49.266;7.104;2023-06-14T06:49:18;5.03;;;4.72;;
15183;SDS011;7693;49.266;7.104;2023-06-14T06:51:53;5.07;;;4.78;;
15183;SDS011;7693;49.266;7.104;2023-06-14T06:54:27;4.95;;;4.60;;
15183;SDS011;7693;49.266;7.104;2023-06-14T06:56:53;6.22;;;4.68;;
15183;SDS011;7693;49.266;7.104;2023-06-14T06:59:19;6.00;;;4.75;;
15183;SDS011;7693;49.266;7.104;2023-06-14T07:01:44;5.20;;;4.65;;
15183;SDS011;7693;49.266;7.104;2023-06-14T07:04:10;6.97;;;4.50;;
15183;SDS011;7693;49.266;7.104;2023-06-14T07:06:36;8.43;;;4.82;;
15183;SDS011;7693;49.266;7.104;2023-06-14T07:09:02;4.95;;;4.60;;
15183;SDS011;7693;49.266;7.104;2023-06-14T07:11:29;5.00;;;4.63;;
15183;SDS011;7693;49.266;7.104;2023-06-14T07:13:55;6.68;;;4.57;;
15183;SDS011;7693;49.266;7.104;2023-06-14T07:16:21;4.88;;;4.57;;
15183;SDS011;7693;49.266;7.104;2023-06-14T07:18:46;7.35;;;4.10;;
15183;SDS011;7693;49.266;7.104;2023-06-14T07:21:12;4.47;;;4.07;;
15183;SDS011;7693;49.266;7.104;2023-06-14T07:23:38;7.82;;;4.85;;
15183;SDS011;7693;49.266;7.104;2023-06-14T07:26:03;8.25;;;4.47;;
15183;SDS011;7693;49.266;7.104;2023-06-14T07:28:29;4.57;;;4.28;;
15183;SDS011;7693;49.266;7.104;2023-06-14T07:30:54;4.95;;;4.45;;
15183;SDS011;7693;49.266;7.104;2023-06-14T07:33:20;4.65;;;4.15;;
15183;SDS011;7693;49.266;7.104;2023-06-14T07:35:45;4.90;;;4.13;;
15183;SDS011;7693;49.266;7.104;2023-06-14T07:38:12;4.60;;;4.28;;
15183;SDS011;7693;49.266;7.104;2023-06-14T07:40:38;4.70;;;4.30;;
15183;SDS011;7693;49.266;7.104;2023-06-14T07:43:03;9.65;;;4.30;;
15183;SDS011;7693;49.266;7.104;2023-06-14T07:45:29;5.05;;;4.25;;
15183;SDS011;7693;49.266;7.104;2023-06-14T07:47:55;4.93;;;4.53;;
15183;SDS011;7693;49.266;7.104;2023-06-14T07:50:21;4.45;;;4.00;;
15183;SDS011;7693;49.266;7.104;2023-06-14T07:52:47;9.40;;;4.55;;
15183;SDS011;7693;49.266;7.104;2023-06-14T07:55:13;6.75;;;4.53;;
15183;SDS011;7693;49.266;7.104;2023-06-14T07:57:40;4.53;;;4.13;;
15183;SDS011;7693;49.266;7.104;2023-06-14T08:00:05;5.28;;;4.18;;
15183;SDS011;7693;49.266;7.104;2023-06-14T08:02:31;7.90;;;4.80;;
15183;SDS011;7693;49.266;7.104;2023-06-14T08:04:57;6.78;;;4.55;;
15183;SDS011;7693;49.266;7.104;2023-06-14T08:07:23;7.20;;;4.95;;
15183;SDS011;7693;49.266;7.104;2023-06-14T08:09:49;5.35;;;4.57;;
15183;SDS011;7693;49.266;7.104;2023-06-14T08:12:15;9.32;;;4.90;;
15183;SDS011;7693;49.266;7.104;2023-06-14T08:14:41;8.60;;;4.93;;
15183;SDS011;7693;49.266;7.104;2023-06-14T08:17:07;5.13;;;4.82;;
15183;SDS011;7693;49.266;7.104;2023-06-14T08:19:33;5.80;;;5.35;;
15183;SDS011;7693;49.266;7.104;2023-06-14T08:21:59;5.53;;;4.95;;
15183;SDS011;7693;49.266;7.104;2023-06-14T08:24:25;5.78;;;5.22;;
15183;SDS011;7693;49.266;7.104;2023-06-14T08:26:52;5.28;;;4.82;;
15183;SDS011;7693;49.266;7.104;2023-06-14T08:29:18;5.05;;;4.72;;
15183;SDS011;7693;49.266;7.104;2023-06-14T08:31:44;5.07;;;4.43;;
15183;SDS011;7693;49.266;7.104;2023-06-14T08:34:10;6.10;;;4.43;;
15183;SDS011;7693;49.266;7.104;2023-06-14T08:36:36;4.78;;;4.43;;
15183;SDS011;7693;49.266;7.104;2023-06-14T08:39:01;11.10;;;5.07;;
15183;SDS011;7693;49.266;7.104;2023-06-14T08:41:27;5.18;;;4.68;;
15183;SDS011;7693;49.266;7.104;2023-06-14T08:43:54;8.65;;;4.90;;
15183;SDS011;7693;49.266;7.104;2023-06-14T08:46:20;4.80;;;4.40;;
15183;SDS011;7693;49.266;7.104;2023-06-14T08:48:50;4.80;;;4.40;;
15183;SDS011;7693;49.266;7.104;2023-06-14T08:51:19;6.63;;;4.35;;
15183;SDS011;7693;49.266;7.104;2023-06-14T08:53:53;5.38;;;4.53;;
15183;SDS011;7693;49.266;7.104;2023-06-14T08:56:26;9.98;;;4.80;;
15183;SDS011;7693;49.266;7.104;2023-06-14T08:58:52;7.18;;;4.53;;
15183;SDS011;7693;49.266;7.104;2023-06-14T09:01:19;5.35;;;3.97;;
15183;SDS011;7693;49.266;7.104;2023-06-14T09:03:46;4.13;;;3.83;;
15183;SDS011;7693;49.266;7.104;2023-06-14T09:06:13;4.75;;;4.28;;
15183;SDS011;7693;49.266;7.104;2023-06-14T09:08:41;4.57;;;4.18;;
15183;SDS011;7693;49.266;7.104;2023-06-14T09:11:08;8.05;;;4.40;;
15183;SDS011;7693;49.266;7.104;2023-06-14T09:13:39;4.30;;;4.00;;
15183;SDS011;7693;49.266;7.104;2023-06-14T09:16:06;5.03;;;4.20;;
15183;SDS011;7693;49.266;7.104;2023-06-14T09:18:42;4.53;;;3.75;;
15183;SDS011;7693;49.266;7.104;2023-06-14T09:21:09;6.03;;;3.70;;
15183;SDS011;7693;49.266;7.104;2023-06-14T09:23:36;4.13;;;3.67;;
15183;SDS011;7693;49.266;7.104;2023-06-14T09:26:21;5.05;;;3.80;;
15183;SDS011;7693;49.266;7.104;2023-06-14T09:28:52;9.15;;;4.13;;
15183;SDS011;7693;49.266;7.104;2023-06-14T09:31:18;6.20;;;4.28;;
15183;SDS011;7693;49.266;7.104;2023-06-14T09:33:45;3.95;;;3.65;;
15183;SDS011;7693;49.266;7.104;2023-06-14T09:36:23;4.45;;;4.10;;
15183;SDS011;7693;49.266;7.104;2023-06-14T09:41:21;11.25;;;4.05;;
15183;SDS011;7693;49.266;7.104;2023-06-14T09:44:16;4.15;;;3.90;;
15183;SDS011;7693;49.266;7.104;2023-06-14T09:46:43;6.88;;;3.83;;
15183;SDS011;7693;49.266;7.104;2023-06-14T09:49:09;6.80;;;4.13;;
15183;SDS011;7693;49.266;7.104;2023-06-14T09:51:34;4.53;;;4.15;;
15183;SDS011;7693;49.266;7.104;2023-06-14T09:54:08;4.55;;;4.15;;
15183;SDS011;7693;49.266;7.104;2023-06-14T09:56:46;3.72;;;3.40;;
15183;SDS011;7693;49.266;7.104;2023-06-14T09:59:14;5.95;;;3.53;;
15183;SDS011;7693;49.266;7.104;2023-06-14T12:40:22;2.97;;;2.80;;
15183;SDS011;7693;49.266;7.104;2023-06-14T12:42:48;3.95;;;2.72;;
15183;SDS011;7693;49.266;7.104;2023-06-14T12:45:14;4.13;;;2.72;;
15183;SDS011;7693;49.266;7.104;2023-06-14T12:47:40;4.10;;;3.08;;
15183;SDS011;7693;49.266;7.104;2023-06-14T12:50:06;3.70;;;2.65;;
15183;SDS011;7693;49.266;7.104;2023-06-14T12:52:32;2.90;;;2.80;;
15183;SDS011;7693;49.266;7.104;2023-06-14T12:55:01;2.80;;;2.30;;
15183;SDS011;7693;49.266;7.104;2023-06-14T12:57:28;3.55;;;2.70;;
15183;SDS011;7693;49.266;7.104;2023-06-14T12:59:53;2.90;;;2.60;;
15183;SDS011;7693;49.266;7.104;2023-06-14T13:02:19;2.67;;;2.40;;
15183;SDS011;7693;49.266;7.104;2023-06-14T13:04:49;7.25;;;2.90;;
15183;SDS011;7693;49.266;7.104;2023-06-14T13:07:15;3.63;;;2.67;;
15183;SDS011;7693;49.266;7.104;2023-06-14T13:09:41;2.60;;;2.40;;
15183;SDS011;7693;49.266;7.104;2023-06-14T13:12:09;3.05;;;2.13;;
15183;SDS011;7693;49.266;7.104;2023-06-14T13:14:36;5.70;;;2.53;;
15183;SDS011;7693;49.266;7.104;2023-06-14T13:17:02;2.35;;;2.25;;
15183;SDS011;7693;49.266;7.104;2023-06-14T13:19:27;2.85;;;2.60;;
15183;SDS011;7693;49.266;7.104;2023-06-14T13:21:53;2.50;;;2.40;;
15183;SDS011;7693;49.266;7.104;2023-06-14T13:24:18;7.53;;;2.65;;
15183;SDS011;7693;49.266;7.104;2023-06-14T13:26:44;3.75;;;2.20;;
15183;SDS011;7693;49.266;7.104;2023-06-14T13:29:09;4.82;;;2.42;;
15183;SDS011;7693;49.266;7.104;2023-06-14T13:31:35;2.63;;;2.42;;
15183;SDS011;7693;49.266;7.104;2023-06-14T13:34:01;2.50;;;2.40;;
15183;SDS011;7693;49.266;7.104;2023-06-14T13:36:26;4.47;;;2.70;;
15183;SDS011;7693;49.266;7.104;2023-06-14T13:38:52;5.03;;;2.08;;
15183;SDS011;7693;49.266;7.104;2023-06-14T13:41:19;7.63;;;2.67;;
15183;SDS011;7693;49.266;7.104;2023-06-14T13:43:45;2.30;;;2.20;;
15183;SDS011;7693;49.266;7.104;2023-06-14T13:46:10;2.38;;;2.20;;
15183;SDS011;7693;49.266;7.104;2023-06-14T13:48:36;5.03;;;2.40;;
15183;SDS011;7693;49.266;7.104;2023-06-14T13:51:02;2.22;;;2.15;;
15183;SDS011;7693;49.266;7.104;2023-06-14T13:53:29;2.42;;;2.33;;
15183;SDS011;7693;49.266;7.104;2023-06-14T13:55:55;2.47;;;2.08;;
15183;SDS011;7693;49.266;7.104;2023-06-14T13:58:20;3.30;;;2.17;;
15183;SDS011;7693;49.266;7.104;2023-06-14T14:00:46;2.40;;;2.30;;
15183;SDS011;7693;49.266;7.104;2023-06-14T14:03:11;2.42;;;2.33;;
15183;SDS011;7693;49.266;7.104;2023-06-14T14:05:37;2.70;;;2.28;;
15183;SDS011;7693;49.266;7.104;2023-06-14T14:08:03;2.60;;;2.40;;
15183;SDS011;7693;49.266;7.104;2023-06-14T14:10:29;3.80;;;2.58;;
15183;SDS011;7693;49.266;7.104;2023-06-14T14:12:54;2.60;;;2.40;;
15183;SDS011;7693;49.266;7.104;2023-06-14T14:15:20;2.60;;;2.40;;
15183;SDS011;7693;49.266;7.104;2023-06-14T14:17:46;2.10;;;2.00;;
15183;SDS011;7693;49.266;7.104;2023-06-14T14:20:12;6.80;;;2.30;;
15183;SDS011;7693;49.266;7.104;2023-06-14T14:22:40;2.30;;;2.20;;
15183;SDS011;7693;49.266;7.104;2023-06-14T14:25:06;2.60;;;2.38;;
15183;SDS011;7693;49.266;7.104;2023-06-14T14:27:32;3.35;;;2.40;;
15183;SDS011;7693;49.266;7.104;2023-06-14T14:29:58;4.25;;;2.28;;
15183;SDS011;7693;49.266;7.104;2023-06-14T14:32:23;6.35;;;2.20;;
15183;SDS011;7693;49.266;7.104;2023-06-14T14:34:49;3.03;;;2.15;;
15183;SDS011;7693;49.266;7.104;2023-06-14T14:37:15;2.22;;;2.10;;
15183;SDS011;7693;49.266;7.104;2023-06-14T14:39:41;2.15;;;2.13;;
15183;SDS011;7693;49.266;7.104;2023-06-14T14:42:07;2.85;;;2.20;;
15183;SDS011;7693;49.266;7.104;2023-06-14T14:44:32;3.95;;;2.22;;
15183;SDS011;7693;49.266;7.104;2023-06-14T14:46:58;2.03;;;1.95;;
15183;SDS011;7693;49.266;7.104;2023-06-14T14:49:24;2.20;;;2.10;;
15183;SDS011;7693;49.266;7.104;2023-06-14T14:51:49;2.47;;;2.33;;
15183;SDS011;7693;49.266;7.104;2023-06-14T14:54:15;2.88;;;2.03;;
15183;SDS011;7693;49.266;7.104;2023-06-14T14:56:40;2.25;;;2.10;;
15183;SDS011;7693;49.266;7.104;2023-06-14T14:59:06;2.20;;;2.10;;
15183;SDS011;7693;49.266;7.104;2023-06-14T15:01:31;3.97;;;2.17;;
15183;SDS011;7693;49.266;7.104;2023-06-14T15:03:57;3.60;;;2.10;;
15183;SDS011;7693;49.266;7.104;2023-06-14T15:06:22;5.05;;;2.22;;
15183;SDS011;7693;49.266;7.104;2023-06-14T15:08:48;2.75;;;2.00;;
15183;SDS011;7693;49.266;7.104;2023-06-14T15:11:14;2.17;;;2.08;;
15183;SDS011;7693;49.266;7.104;2023-06-14T15:13:39;2.65;;;1.88;;
15183;SDS011;7693;49.266;7.104;2023-06-14T15:16:05;2.25;;;2.10;;
15183;SDS011;7693;49.266;7.104;2023-06-14T15:18:30;2.30;;;2.10;;
15183;SDS011;7693;49.266;7.104;2023-06-14T15:20:56;3.38;;;2.10;;
15183;SDS011;7693;49.266;7.104;2023-06-14T15:23:21;4.90;;;2.20;;
15183;SDS011;7693;49.266;7.104;2023-06-14T15:25:47;2.10;;;1.90;;
15183;SDS011;7693;49.266;7.104;2023-06-14T15:28:13;2.08;;;1.85;;
15183;SDS011;7693;49.266;7.104;2023-06-14T15:30:38;1.90;;;1.80;;
15183;SDS011;7693;49.266;7.104;2023-06-14T15:33:04;3.88;;;1.85;;
15183;SDS011;7693;49.266;7.104;2023-06-14T15:35:30;2.10;;;1.90;;
15183;SDS011;7693;49.266;7.104;2023-06-14T15:37:55;4.65;;;2.00;;
15183;SDS011;7693;49.266;7.104;2023-06-14T15:40:21;1.67;;;1.55;;
15183;SDS011;7693;49.266;7.104;2023-06-14T15:42:46;1.63;;;1.52;;
15183;SDS011;7693;49.266;7.104;2023-06-14T15:45:12;2.20;;;2.00;;
15183;SDS011;7693;49.266;7.104;2023-06-14T15:47:38;5.28;;;1.98;;
15183;SDS011;7693;49.266;7.104;2023-06-14T15:50:04;4.65;;;1.80;;
15183;SDS011;7693;49.266;7.104;2023-06-14T15:52:32;2.10;;;2.00;;
15183;SDS011;7693;49.266;7.104;2023-06-14T15:54:58;1.83;;;1.73;;
15183;SDS011;7693;49.266;7.104;2023-06-14T15:57:24;1.52;;;1.50;;
15183;SDS011;7693;49.266;7.104;2023-06-14T15:59:50;2.33;;;1.80;;
15183;SDS011;7693;49.266;7.104;2023-06-14T16:02:16;1.92;;;1.80;;
15183;SDS011;7693;49.266;7.104;2023-06-14T16:04:41;2.70;;;2.03;;
15183;SDS011;7693;49.266;7.104;2023-06-14T16:07:07;2.00;;;1.73;;
15183;SDS011;7693;49.266;7.104;2023-06-14T16:09:33;1.85;;;1.70;;
15183;SDS011;7693;49.266;7.104;2023-06-14T16:11:59;1.65;;;1.60;;
15183;SDS011;7693;49.266;7.104;2023-06-14T16:14:25;3.38;;;1.52;;
15183;SDS011;7693;49.266;7.104;2023-06-14T16:16:50;6.93;;;2.67;;
15183;SDS011;7693;49.266;7.104;2023-06-14T16:19:16;2.10;;;1.95;;
15183;SDS011;7693;49.266;7.104;2023-06-14T16:21:41;2.55;;;2.38;;
15183;SDS011;7693;49.266;7.104;2023-06-14T16:24:07;2.20;;;1.98;;
15183;SDS011;7693;49.266;7.104;2023-06-14T16:26:33;1.70;;;1.60;;
15183;SDS011;7693;49.266;7.104;2023-06-14T16:28:59;1.80;;;1.70;;
15183;SDS011;7693;49.266;7.104;2023-06-14T16:31:24;1.70;;;1.60;;
15183;SDS011;7693;49.266;7.104;2023-06-14T16:33:50;2.42;;;1.63;;
15183;SDS011;7693;49.266;7.104;2023-06-14T16:36:28;1.40;;;1.30;;
15183;SDS011;7693;49.266;7.104;2023-06-14T16:38:54;1.83;;;1.35;;
15183;SDS011;7693;49.266;7.104;2023-06-14T16:41:20;2.50;;;1.70;;
15183;SDS011;7693;49.266;7.104;2023-06-14T16:43:45;1.75;;;1.65;;
15183;SDS011;7693;49.266;7.104;2023-06-14T16:46:13;5.22;;;1.90;;
15183;SDS011;7693;49.266;7.104;2023-06-14T16:48:39;1.58;;;1.55;;
15183;SDS011;7693;49.266;7.104;2023-06-14T16:51:04;5.90;;;2.05;;
15183;SDS011;7693;49.266;7.104;2023-06-14T16:53:30;4.60;;;1.60;;
15183;SDS011;7693;49.266;7.104;2023-06-14T16:55:56;1.58;;;1.52;;
15183;SDS011;7693;49.266;7.104;2023-06-14T16:58:21;1.70;;;1.60;;
15183;SDS011;7693;49.266;7.104;2023-06-14T17:00:47;1.73;;;1.63;;
15183;SDS011;7693;49.266;7.104;2023-06-14T17:03:12;3.22;;;1.95;;
15183;SDS011;7693;49.266;7.104;2023-06-14T17:05:39;4.80;;;1.70;;
15183;SDS011;7693;49.266;7.104;2023-06-14T17:08:21;1.80;;;1.70;;
15183;SDS011;7693;49.266;7.104;2023-06-14T17:10:51;1.60;;;1.50;;
15183;SDS011;7693;49.266;7.104;2023-06-14T17:13:17;1.70;;;1.60;;
15183;SDS011;7693;49.266;7.104;2023-06-14T17:15:43;3.83;;;1.70;;
15183;SDS011;7693;49.266;7.104;2023-06-14T17:18:12;1.77;;;1.67;;
15183;SDS011;7693;49.266;7.104;2023-06-14T17:20:37;1.80;;;1.60;;
15183;SDS011;7693;49.266;7.104;2023-06-14T17:23:03;1.65;;;1.55;;
15183;SDS011;7693;49.266;7.104;2023-06-14T17:25:29;1.77;;;1.75;;
15183;SDS011;7693;49.266;7.104;2023-06-14T17:27:57;1.83;;;1.80;;
15183;SDS011;7693;49.266;7.104;2023-06-14T17:30:23;2.08;;;1.42;;
15183;SDS011;7693;49.266;7.104;2023-06-14T17:32:48;5.45;;;1.90;;
15183;SDS011;7693;49.266;7.104;2023-06-14T17:35:17;3.17;;;1.60;;
15183;SDS011;7693;49.266;7.104;2023-06-14T17:37:43;1.92;;;1.83;;
15183;SDS011;7693;49.266;7.104;2023-06-14T17:40:08;2.83;;;2.40;;
15183;SDS011;7693;49.266;7.104;2023-06-14T17:42:34;3.40;;;1.90;;
15183;SDS011;7693;49.266;7.104;2023-06-14T17:45:00;5.95;;;1.98;;
15183;SDS011;7693;49.266;7.104;2023-06-14T17:47:26;1.90;;;1.80;;
15183;SDS011;7693;49.266;7.104;2023-06-14T17:49:51;3.90;;;1.80;;
15183;SDS011;7693;49.266;7.104;2023-06-14T17:52:20;4.18;;;1.77;;
15183;SDS011;7693;49.266;7.104;2023-06-14T17:54:46;1.88;;;1.77;;
15183;SDS011;7693;49.266;7.104;2023-06-14T17:57:12;2.28;;;2.17;;
15183;SDS011;7693;49.266;7.104;2023-06-14T17:59:39;3.85;;;1.88;;
15183;SDS011;7693;49.266;7.104;2023-06-14T18:02:05;2.15;;;2.00;;
15183;SDS011;7693;49.266;7.104;2023-06-14T18:04:31;2.28;;;2.17;;
15183;SDS011;7693;49.266;7.104;2023-06-14T18:06:57;2.40;;;2.05;;
15183;SDS011;7693;49.266;7.104;2023-06-14T18:09:25;1.70;;;1.70;;
15183;SDS011;7693;49.266;7.104;2023-06-14T18:11:52;6.55;;;2.05;;
15183;SDS011;7693;49.266;7.104;2023-06-14T18:14:17;3.92;;;2.00;;
15183;SDS011;7693;49.266;7.104;2023-06-14T18:16:43;2.30;;;2.20;;
15183;SDS011;7693;49.266;7.104;2023-06-14T18:19:09;4.72;;;2.25;;
15183;SDS011;7693;49.266;7.104;2023-06-14T18:21:34;2.47;;;1.88;;
15183;SDS011;7693;49.266;7.104;2023-06-14T18:24:00;4.05;;;1.90;;
15183;SDS011;7693;49.266;7.104;2023-06-14T18:26:26;2.53;;;2.30;;
15183;SDS011;7693;49.266;7.104;2023-06-14T18:28:52;4.25;;;1.92;;
15183;SDS011;7693;49.266;7.104;2023-06-14T18:31:19;2.25;;;2.03;;
15183;SDS011;7693;49.266;7.104;2023-06-14T18:33:44;4.57;;;2.10;;
15183;SDS011;7693;49.266;7.104;2023-06-14T18:36:10;2.03;;;1.92;;
15183;SDS011;7693;49.266;7.104;2023-06-14T18:38:36;2.53;;;2.33;;
15183;SDS011;7693;49.266;7.104;2023-06-14T18:41:02;1.80;;;1.70;;
15183;SDS011;7693;49.266;7.104;2023-06-14T18:43:27;4.18;;;2.10;;
15183;SDS011;7693;49.266;7.104;2023-06-14T18:45:56;2.40;;;2.20;;
15183;SDS011;7693;49.266;7.104;2023-06-14T18:48:23;3.70;;;2.17;;
15183;SDS011;7693;49.266;7.104;2023-06-14T18:50:48;2.10;;;2.00;;
15183;SDS011;7693;49.266;7.104;2023-06-14T18:53:14;4.47;;;2.40;;
15183;SDS011;7693;49.266;7.104;2023-06-14T18:55:39;1.98;;;1.95;;
15183;SDS011;7693;49.266;7.104;2023-06-14T18:58:08;3.42;;;2.13;;
15183;SDS011;7693;49.266;7.104;2023-06-14T19:00:33;2.30;;;2.15;;
15183;SDS011;7693;49.266;7.104;2023-06-14T19:02:59;2.35;;;2.15;;
15183;SDS011;7693;49.266;7.104;2023-06-14T19:05:25;3.25;;;2.28;;
15183;SDS011;7693;49.266;7.104;2023-06-14T19:07:51;2.20;;;2.20;;
15183;SDS011;7693;49.266;7.104;2023-06-14T19:10:17;3.05;;;2.55;;
15183;SDS011;7693;49.266;7.104;2023-06-14T19:12:42;2.38;;;2.28;;
15183;SDS011;7693;49.266;7.104;2023-06-14T19:15:08;3.00;;;2.33;;
15183;SDS011;7693;49.266;7.104;2023-06-14T19:17:34;3.08;;;2.28;;
15183;SDS011;7693;49.266;7.104;2023-06-14T19:20:00;2.67;;;2.10;;
15183;SDS011;7693;49.266;7.104;2023-06-14T19:22:25;3.30;;;3.20;;
15183;SDS011;7693;49.266;7.104;2023-06-14T19:24:51;4.63;;;2.40;;
15183;SDS011;7693;49.266;7.104;2023-06-14T19:27:17;2.40;;;2.30;;
15183;SDS011;7693;49.266;7.104;2023-06-14T19:29:42;2.83;;;2.72;;
15183;SDS011;7693;49.266;7.104;2023-06-14T19:32:08;2.78;;;2.40;;
15183;SDS011;7693;49.266;7.104;2023-06-14T19:34:33;3.67;;;2.40;;
15183;SDS011;7693;49.266;7.104;2023-06-14T19:36:59;2.40;;;2.20;;
15183;SDS011;7693;49.266;7.104;2023-06-14T19:39:25;2.55;;;2.20;;
15183;SDS011;7693;49.266;7.104;2023-06-14T19:41:50;3.65;;;2.55;;
15183;SDS011;7693;49.266;7.104;2023-06-14T19:44:16;2.53;;;2.40;;
15183;SDS011;7693;49.266;7.104;2023-06-14T19:46:42;3.20;;;2.60;;
15183;SDS011;7693;49.266;7.104;2023-06-14T19:49:08;2.97;;;2.72;;
15183;SDS011;7693;49.266;7.104;2023-06-14T19:51:33;3.00;;;2.80;;
15183;SDS011;7693;49.266;7.104;2023-06-14T19:53:59;4.72;;;2.47;;
15183;SDS011;7693;49.266;7.104;2023-06-14T19:56:25;3.53;;;2.33;;
15183;SDS011;7693;49.266;7.104;2023-06-14T19:58:50;2.53;;;2.38;;
15183;SDS011;7693;49.266;7.104;2023-06-14T20:01:16;3.35;;;2.40;;
15183;SDS011;7693;49.266;7.104;2023-06-14T20:03:42;2.70;;;2.50;;
15183;SDS011;7693;49.266;7.104;2023-06-14T20:06:08;3.53;;;2.83;;
15183;SDS011;7693;49.266;7.104;2023-06-14T20:08:35;2.92;;;2.72;;
15183;SDS011;7693;49.266;7.104;2023-06-14T20:11:01;2.72;;;2.53;;
15183;SDS011;7693;49.266;7.104;2023-06-14T20:13:27;2.63;;;2.53;;
15183;SDS011;7693;49.266;7.104;2023-06-14T20:15:52;2.70;;;2.60;;
15183;SDS011;7693;49.266;7.104;2023-06-14T20:18:20;3.40;;;3.10;;
15183;SDS011;7693;49.266;7.104;2023-06-14T20:20:48;3.25;;;3.05;;
15183;SDS011;7693;49.266;7.104;2023-06-14T20:23:15;3.05;;;2.75;;
15183;SDS011;7693;49.266;7.104;2023-06-14T20:25:40;4.47;;;3.03;;
15183;SDS011;7693;49.266;7.104;2023-06-14T20:28:06;3.65;;;2.88;;
15183;SDS011;7693;49.266;7.104;2023-06-14T20:30:31;3.05;;;2.85;;
15183;SDS011;7693;49.266;7.104;2023-06-14T20:32:57;3.65;;;2.67;;
15183;SDS011;7693;49.266;7.104;2023-06-14T20:35:23;2.70;;;2.60;;
15183;SDS011;7693;49.266;7.104;2023-06-14T20:37:48;2.88;;;2.70;;
15183;SDS011;7693;49.266;7.104;2023-06-14T20:40:21;2.90;;;2.70;;
15183;SDS011;7693;49.266;7.104;2023-06-14T20:42:47;2.83;;;2.50;;
15183;SDS011;7693;49.266;7.104;2023-06-14T20:45:13;3.30;;;3.10;;
15183;SDS011;7693;49.266;7.104;2023-06-14T20:47:40;2.97;;;2.67;;
15183;SDS011;7693;49.266;7.104;2023-06-14T20:50:06;3.10;;;2.80;;
15183;SDS011;7693;49.266;7.104;2023-06-14T20:52:33;2.70;;;2.60;;
15183;SDS011;7693;49.266;7.104;2023-06-14T20:54:58;4.82;;;2.65;;
15183;SDS011;7693;49.266;7.104;2023-06-14T20:57:24;3.00;;;2.80;;
15183;SDS011;7693;49.266;7.104;2023-06-14T20:59:49;3.13;;;3.03;;
15183;SDS011;7693;49.266;7.104;2023-06-14T21:02:15;4.50;;;2.80;;
15183;SDS011;7693;49.266;7.104;2023-06-14T21:04:43;3.10;;;3.00;;
15183;SDS011;7693;49.266;7.104;2023-06-14T21:07:09;3.38;;;2.97;;
15183;SDS011;7693;49.266;7.104;2023-06-14T21:09:35;3.30;;;2.95;;
15183;SDS011;7693;49.266;7.104;2023-06-14T21:12:01;2.97;;;2.80;;
15183;SDS011;7693;49.266;7.104;2023-06-14T21:14:27;3.08;;;2.88;;
15183;SDS011;7693;49.266;7.104;2023-06-14T21:16:53;3.50;;;3.30;;
15183;SDS011;7693;49.266;7.104;2023-06-14T21:19:19;3.20;;;3.10;;
15183;SDS011;7693;49.266;7.104;2023-06-14T21:21:44;5.70;;;3.10;;
15183;SDS011;7693;49.266;7.104;2023-06-14T21:24:10;3.28;;;2.95;;
15183;SDS011;7693;49.266;7.104;2023-06-14T21:26:36;3.30;;;3.00;;
15183;SDS011;7693;49.266;7.104;2023-06-14T21:29:02;6.95;;;2.70;;
15183;SDS011;7693;49.266;7.104;2023-06-14T21:31:28;3.40;;;3.20;;
15183;SDS011;7693;49.266;7.104;2023-06-14T21:33:55;7.53;;;3.22;;
15183;SDS011;7693;49.266;7.104;2023-06-14T21:36:20;3.38;;;3.17;;
15183;SDS011;7693;49.266;7.104;2023-06-14T21:38:46;3.95;;;3.30;;
15183;SDS011;7693;49.266;7.104;2023-06-14T21:41:12;3.42;;;3.15;;
15183;SDS011;7693;49.266;7.104;2023-06-14T21:43:38;3.10;;;2.97;;
15183;SDS011;7693;49.266;7.104;2023-06-14T21:46:03;3.15;;;3.05;;
15183;SDS011;7693;49.266;7.104;2023-06-14T21:48:29;3.38;;;3.22;;
15183;SDS011;7693;49.266;7.104;2023-06-14T21:50:55;3.13;;;3.00;;
15183;SDS011;7693;49.266;7.104;2023-06-14T21:53:22;3.65;;;3.30;;
15183;SDS011;7693;49.266;7.104;2023-06-14T21:55:48;3.03;;;2.90;;
15183;SDS011;7693;49.266;7.104;2023-06-14T21:58:13;3.40;;;3.20;;
15183;SDS011;7693;49.266;7.104;2023-06-14T22:00:39;4.70;;;3.78;;
15183;SDS011;7693;49.266;7.104;2023-06-14T22:03:05;3.60;;;3.40;;
15183;SDS011;7693;49.266;7.104;2023-06-14T22:05:31;3.60;;;3.40;;
15183;SDS011;7693;49.266;7.104;2023-06-14T22:07:56;5.03;;;3.60;;
15183;SDS011;7693;49.266;7.104;2023-06-14T22:10:23;3.33;;;3.17;;
15183;SDS011;7693;49.266;7.104;2023-06-14T22:12:48;3.75;;;3.45;;
15183;SDS011;7693;49.266;7.104;2023-06-14T22:15:16;3.47;;;3.28;;
15183;SDS011;7693;49.266;7.104;2023-06-14T22:17:42;5.53;;;3.75;;
